Time;durP1;ratioP1;P1;durP2;ratioP2;P2;SDS_P1;SDS_P2;PMS_P1;PMS_P2;Temp;Humidity;BMP_temperature;BMP_pressure;BME280_temperature;BME280_humidity;BME280_pressure;Samples;Min_cycle;Max_cycle;Signal;HPM_P1;HPM_P2
2021/09/28 00:02:22;;;;;;;6.55;3.38;;;;;;;13.13;86.32;100576.31;5104470;28;20080;-66
2021/09/28 00:04:47;;;;;;;2.53;1.30;;;;;;;13.50;84.77;100572.25;5104507;28;20032;-64
2021/09/28 00:07:15;;;;;;;6.05;2.35;;;;;;;13.29;85.83;100573.44;5104615;28;20046;-63
2021/09/28 00:09:40;;;;;;;4.85;3.42;;;;;;;13.26;86.08;100576.09;5104262;28;20041;-63
2021/09/28 00:12:06;;;;;;;3.25;2.05;;;;;;;13.40;85.90;100575.88;5104554;28;20115;-66
2021/09/28 00:14:32;;;;;;;5.40;2.35;;;;;;;13.51;85.15;100589.59;5104265;28;20273;-64
2021/09/28 00:16:57;;;;;;;6.25;4.55;;;;;;;13.28;86.21;100603.00;5104352;28;20095;-67
2021/09/28 00:19:22;;;;;;;3.50;2.22;;;;;;;13.39;85.97;100611.50;5104686;28;20024;-66
2021/09/28 00:21:48;;;;;;;3.55;2.15;;;;;;;13.21;86.92;100604.00;5104008;28;20228;-64
2021/09/28 00:24:14;;;;;;;5.55;3.05;;;;;;;13.00;87.54;100596.47;5103941;28;20044;-63
2021/09/28 00:26:41;;;;;;;0.20;0.20;;;;;;;12.88;88.47;100594.06;5104399;28;20048;-64
2021/09/28 00:29:06;;;;;;;1.52;1.42;;;;;;;12.93;89.26;100607.91;5104030;28;20016;-64
2021/09/28 00:31:31;;;;;;;0.30;0.30;;;;;;;12.90;89.19;100607.94;5104127;28;20031;-64
2021/09/28 00:33:57;;;;;;;0.20;0.20;;;;;;;12.85;89.87;100615.81;5103848;28;20028;-63
2021/09/28 00:36:23;;;;;;;0.30;0.30;;;;;;;12.75;90.17;100602.06;5103922;28;20020;-63
2021/09/28 00:38:51;;;;;;;0.20;0.20;;;;;;;12.73;90.64;100609.03;5103746;28;20365;-64
2021/09/28 00:41:17;;;;;;;0.20;0.20;;;;;;;12.70;91.37;100597.81;5103749;28;20020;-63
2021/09/28 00:43:44;;;;;;;0.22;0.22;;;;;;;12.66;91.67;100599.59;5103907;28;20024;-63
2021/09/28 00:46:09;;;;;;;0.40;0.40;;;;;;;12.80;91.59;100606.34;5103736;28;20032;-63
2021/09/28 00:48:34;;;;;;;0.20;0.20;;;;;;;12.77;91.71;100609.88;5103790;28;20060;-62
2021/09/28 00:51:00;;;;;;;0.25;0.25;;;;;;;12.67;92.18;100600.47;5103566;28;20030;-63
2021/09/28 00:53:25;;;;;;;0.20;0.20;;;;;;;12.79;91.79;100608.09;5103478;28;20048;-63
2021/09/28 00:55:50;;;;;;;0.20;0.20;;;;;;;12.84;91.95;100615.84;5103424;28;20028;-64
2021/09/28 00:58:16;;;;;;;0.30;0.30;;;;;;;12.82;92.20;100613.28;5103486;28;20056;-63
2021/09/28 01:00:42;;;;;;;0.20;0.20;;;;;;;12.81;92.23;100628.94;5103020;28;20174;-63
2021/09/28 01:03:09;;;;;;;0.93;0.90;;;;;;;12.77;92.66;100617.69;5103624;28;20151;-63
2021/09/28 01:05:35;;;;;;;0.20;0.20;;;;;;;12.76;92.51;100610.75;5103328;28;20366;-63
2021/09/28 01:08:00;;;;;;;0.20;0.20;;;;;;;12.82;92.50;100615.00;5103511;28;20028;-63
2021/09/28 01:10:26;;;;;;;0.20;0.20;;;;;;;12.86;92.88;100625.34;5103241;28;20047;-64
2021/09/28 01:12:51;;;;;;;0.20;0.20;;;;;;;12.94;92.46;100629.63;5103404;28;20452;-63
2021/09/28 01:15:17;;;;;;;0.20;0.20;;;;;;;12.80;93.50;100635.00;5103242;28;20028;-63
2021/09/28 01:17:44;;;;;;;0.20;0.20;;;;;;;12.95;92.91;100633.94;5103308;28;20432;-63
2021/09/28 01:20:10;;;;;;;0.20;0.20;;;;;;;12.93;93.41;100638.28;5103568;28;20470;-63
2021/09/28 01:22:35;;;;;;;0.30;0.30;;;;;;;12.85;93.43;100633.19;5103540;28;20053;-64
2021/09/28 01:25:00;;;;;;;0.20;0.20;;;;;;;12.79;94.00;100631.56;5103205;28;20108;-63
2021/09/28 01:27:26;;;;;;;0.20;0.20;;;;;;;12.87;93.78;100637.53;5103524;28;20036;-63
2021/09/28 01:29:51;;;;;;;0.20;0.20;;;;;;;12.86;94.02;100637.53;5103229;28;20036;-63
2021/09/28 01:32:16;;;;;;;0.20;0.20;;;;;;;12.82;94.38;100639.31;5103438;28;20081;-63
2021/09/28 01:34:42;;;;;;;0.20;0.20;;;;;;;12.91;93.98;100640.91;5103187;28;20035;-63
2021/09/28 01:37:07;;;;;;;0.20;0.20;;;;;;;12.92;93.97;100639.19;5103234;28;20046;-63
2021/09/28 01:39:32;;;;;;;0.52;0.52;;;;;;;12.89;94.17;100642.72;5102928;28;20069;-63
2021/09/28 01:41:58;;;;;;;0.20;0.20;;;;;;;12.91;94.37;100638.31;5103389;28;20028;-63
2021/09/28 01:44:23;;;;;;;0.20;0.20;;;;;;;13.00;94.20;100640.78;5103305;28;20024;-63
2021/09/28 01:46:50;;;;;;;0.20;0.20;;;;;;;13.01;93.79;100644.25;5103320;28;20472;-63
2021/09/28 01:49:17;;;;;;;0.20;0.20;;;;;;;13.05;93.78;100643.31;5103234;28;20084;-63
2021/09/28 01:51:43;;;;;;;0.20;0.20;;;;;;;13.01;94.38;100641.66;5103468;28;20020;-63
2021/09/28 01:54:09;;;;;;;0.28;0.28;;;;;;;13.16;93.84;100652.75;5102904;28;20077;-62
2021/09/28 01:56:35;;;;;;;0.28;0.28;;;;;;;13.12;93.56;100639.75;5103434;28;20028;-62
2021/09/28 01:59:03;;;;;;;1.02;0.93;;;;;;;13.11;93.85;100643.25;5102947;28;20016;-63
2021/09/28 02:01:29;;;;;;;0.30;0.30;;;;;;;13.03;94.37;100637.28;5103003;28;20395;-63
2021/09/28 02:03:54;;;;;;;0.73;0.73;;;;;;;13.10;94.51;100638.91;5102937;28;20056;-63
2021/09/28 02:06:23;;;;;;;0.20;0.20;;;;;;;13.06;94.81;100639.84;5103117;28;20024;-62
2021/09/28 02:08:49;;;;;;;2.03;1.85;;;;;;;13.04;94.82;100633.78;5103000;28;20039;-62
2021/09/28 02:11:15;;;;;;;0.20;0.20;;;;;;;13.04;95.21;100636.41;5102929;28;20028;-62
2021/09/28 02:13:41;;;;;;;0.20;0.20;;;;;;;13.07;95.03;100640.69;5105368;28;20032;-63
2021/09/28 02:16:07;;;;;;;1.33;1.23;;;;;;;13.08;95.18;100647.66;5106837;28;20020;-63
2021/09/28 02:18:33;;;;;;;0.20;0.20;;;;;;;13.10;95.05;100643.28;5106713;28;20020;-62
2021/09/28 02:20:58;;;;;;;0.20;0.20;;;;;;;13.15;94.92;100638.84;5106834;28;20035;-62
2021/09/28 02:23:24;;;;;;;0.20;0.20;;;;;;;13.11;95.30;100639.78;5106516;28;20024;-62
2021/09/28 02:25:49;;;;;;;0.20;0.20;;;;;;;13.11;95.13;100643.25;5106437;28;20093;-63
2021/09/28 02:28:14;;;;;;;0.20;0.20;;;;;;;13.12;95.30;100644.97;5106574;28;20032;-62
2021/09/28 02:30:40;;;;;;;0.40;0.40;;;;;;;13.22;94.84;100652.63;5106611;28;20047;-62
2021/09/28 02:33:05;;;;;;;0.20;0.20;;;;;;;13.19;94.86;100643.13;5106508;28;20031;-63
2021/09/28 02:35:31;;;;;;;0.20;0.20;;;;;;;13.17;95.43;100650.09;5106404;28;20020;-62
2021/09/28 02:37:57;;;;;;;0.20;0.20;;;;;;;13.16;95.47;100660.56;5106240;28;20023;-62
2021/09/28 02:40:23;;;;;;;0.20;0.20;;;;;;;13.10;95.94;100659.75;5106191;28;20077;-62
2021/09/28 02:42:49;;;;;;;0.20;0.20;;;;;;;13.19;96.27;100666.59;5106545;28;20023;-62
2021/09/28 02:45:15;;;;;;;0.30;0.30;;;;;;;13.21;96.50;100677.00;5105972;28;20063;-63
2021/09/28 02:47:40;;;;;;;0.22;0.22;;;;;;;13.24;96.07;100671.75;5106191;28;20103;-62
2021/09/28 02:50:06;;;;;;;0.20;0.20;;;;;;;13.26;96.35;100670.81;5106175;28;20026;-62
2021/09/28 02:52:31;;;;;;;0.20;0.20;;;;;;;13.25;96.44;100674.31;5106195;28;20032;-62
2021/09/28 02:54:57;;;;;;;0.20;0.20;;;;;;;13.24;96.08;100669.13;5105880;28;20020;-62
2021/09/28 02:57:22;;;;;;;1.63;1.55;;;;;;;13.19;95.91;100676.16;5106064;28;20375;-62
2021/09/28 02:59:48;;;;;;;0.20;0.20;;;;;;;13.17;95.97;100677.91;5105731;28;20020;-62
2021/09/28 03:02:13;;;;;;;0.40;0.40;;;;;;;13.14;95.61;100676.22;5105801;28;20044;-62
2021/09/28 03:04:38;;;;;;;0.20;0.20;;;;;;;13.08;95.56;100682.38;5105809;28;20028;-62
2021/09/28 03:07:04;;;;;;;0.20;0.20;;;;;;;13.04;95.34;100688.53;5105674;28;20020;-63
2021/09/28 03:09:29;;;;;;;0.20;0.20;;;;;;;13.03;95.61;100681.59;5105735;28;20024;-62
2021/09/28 03:11:55;;;;;;;1.00;1.00;;;;;;;12.97;95.34;100686.91;5105673;28;20025;-62
2021/09/28 03:14:20;;;;;;;0.63;0.63;;;;;;;12.94;95.51;100692.16;5105414;28;20030;-62
2021/09/28 03:16:47;;;;;;;0.20;0.20;;;;;;;12.93;95.31;100698.22;5087490;28;20024;-62
2021/09/28 03:19:13;;;;;;;0.20;0.20;;;;;;;12.89;95.35;100690.44;5105544;28;20024;-63
2021/09/28 03:21:38;;;;;;;8.50;3.70;;;;;;;12.88;95.47;100682.66;5105420;28;20091;-62
2021/09/28 03:24:04;;;;;;;0.20;0.20;;;;;;;12.89;95.47;100695.66;5104799;28;20152;-63
2021/09/28 03:26:29;;;;;;;0.20;0.20;;;;;;;12.89;95.41;100694.81;5105350;28;20479;-62
2021/09/28 03:28:55;;;;;;;0.20;0.20;;;;;;;12.95;95.07;100696.47;5105315;28;20028;-63
2021/09/28 03:31:20;;;;;;;0.20;0.20;;;;;;;12.95;95.36;100697.34;5105226;28;20020;-61
2021/09/28 03:33:45;;;;;;;0.20;0.20;;;;;;;13.02;95.13;100705.91;5105317;28;20024;-62
2021/09/28 03:36:11;;;;;;;0.30;0.30;;;;;;;13.06;95.30;100702.41;5105290;28;20032;-62
2021/09/28 03:38:37;;;;;;;0.20;0.20;;;;;;;13.07;95.35;100704.13;5105278;28;20020;-62
2021/09/28 03:41:03;;;;;;;0.20;0.20;;;;;;;13.10;95.38;100711.06;5104947;28;20027;-62
2021/09/28 03:43:28;;;;;;;0.30;0.30;;;;;;;13.09;95.50;100720.59;5105088;28;20051;-63
2021/09/28 03:45:54;;;;;;;0.20;0.20;;;;;;;13.09;94.99;100722.34;5105189;28;20031;-62
2021/09/28 03:48:21;;;;;;;0.20;0.20;;;;;;;13.09;95.28;100723.22;5104678;28;20107;-62
2021/09/28 03:50:46;;;;;;;1.10;1.00;;;;;;;12.96;95.43;100700.78;5104955;28;20051;-63
2021/09/28 03:53:12;;;;;;;0.20;0.20;;;;;;;13.09;95.46;100717.13;5104795;28;20020;-63
2021/09/28 03:55:37;;;;;;;0.20;0.20;;;;;;;13.04;95.46;100722.41;5104524;28;20031;-63
2021/09/28 03:58:03;;;;;;;0.30;0.30;;;;;;;13.03;95.39;100720.69;5104576;28;20103;-62
2021/09/28 04:00:30;;;;;;;0.20;0.20;;;;;;;13.04;95.89;100734.56;5104618;28;20073;-62
2021/09/28 04:02:55;;;;;;;0.20;0.20;;;;;;;13.07;95.76;100732.78;5104503;28;20073;-62
2021/09/28 04:05:21;;;;;;;0.20;0.20;;;;;;;13.10;95.97;100737.97;5104178;28;20043;-62
2021/09/28 04:07:46;;;;;;;0.55;0.55;;;;;;;13.09;96.03;100736.25;5104251;28;20027;-62
2021/09/28 04:10:11;;;;;;;0.20;0.20;;;;;;;13.09;95.89;100737.97;5104031;28;20024;-61
2021/09/28 04:12:37;;;;;;;0.20;0.20;;;;;;;13.12;95.88;100740.53;5104284;28;20027;-62
2021/09/28 04:15:05;;;;;;;0.20;0.20;;;;;;;13.14;95.98;100739.66;5104332;28;20088;-62
2021/09/28 04:17:30;;;;;;;0.20;0.20;;;;;;;13.16;95.70;100739.63;5104482;28;20495;-61
2021/09/28 04:19:56;;;;;;;0.20;0.20;;;;;;;13.14;95.81;100741.38;5103983;28;20028;-62
2021/09/28 04:22:22;;;;;;;0.30;0.30;;;;;;;13.12;95.58;100746.63;5103990;28;20069;-63
2021/09/28 04:24:49;;;;;;;0.90;0.90;;;;;;;13.11;95.89;100738.81;5103828;28;20047;-63
2021/09/28 04:27:17;;;;;;;0.20;0.20;;;;;;;13.12;95.30;100745.75;5104177;28;20028;-63
2021/09/28 04:29:43;;;;;;;0.20;0.20;;;;;;;13.03;95.41;100751.97;5103993;28;20048;-63
2021/09/28 04:32:09;;;;;;;0.25;0.25;;;;;;;12.96;95.38;100745.97;5103963;28;20028;-63
2021/09/28 04:34:35;;;;;;;0.30;0.30;;;;;;;12.92;95.33;100753.84;5103628;28;20020;-63
2021/09/28 04:37:00;;;;;;;0.20;0.20;;;;;;;12.90;95.27;100759.06;5103025;28;20035;-63
2021/09/28 04:39:26;;;;;;;0.30;0.30;;;;;;;12.84;95.16;100752.19;5103466;28;20020;-62
2021/09/28 04:41:51;;;;;;;0.25;0.25;;;;;;;12.79;95.43;100755.72;5103600;28;20030;-63
2021/09/28 04:44:17;;;;;;;0.30;0.30;;;;;;;12.78;95.55;100765.28;5103422;28;20024;-63
2021/09/28 04:46:42;;;;;;;0.20;0.20;;;;;;;12.79;95.56;100766.16;5103808;28;20099;-62
2021/09/28 04:49:08;;;;;;;0.20;0.20;;;;;;;12.78;95.58;100765.28;5103999;28;20448;-62
2021/09/28 04:51:33;;;;;;;0.30;0.30;;;;;;;12.75;95.82;100767.94;5103972;28;20023;-62
2021/09/28 04:53:58;;;;;;;0.20;0.20;;;;;;;12.77;96.07;100771.38;5103798;28;20085;-61
2021/09/28 04:56:24;;;;;;;0.30;0.30;;;;;;;12.74;96.20;100776.63;5103679;28;20384;-62
2021/09/28 04:58:49;;;;;;;0.20;0.20;;;;;;;12.74;96.02;100787.06;5103567;28;20059;-61
2021/09/28 05:01:15;;;;;;;0.20;0.20;;;;;;;12.79;96.02;100787.88;5103763;28;20023;-62
2021/09/28 05:03:41;;;;;;;0.20;0.20;;;;;;;12.81;95.84;100780.88;5103896;28;20020;-62
2021/09/28 05:06:07;;;;;;;0.25;0.25;;;;;;;12.84;95.92;100793.88;5103548;28;20016;-62
2021/09/28 05:08:32;;;;;;;0.20;0.20;;;;;;;12.79;96.14;100800.03;5103869;28;20019;-62
2021/09/28 05:10:58;;;;;;;2.67;2.47;;;;;;;12.76;96.10;100803.53;5103289;28;20097;-63
2021/09/28 05:13:23;;;;;;;0.20;0.20;;;;;;;12.75;96.02;100810.47;5103597;28;20023;-62
2021/09/28 05:15:49;;;;;;;1.42;0.75;;;;;;;12.75;96.05;100807.88;5103443;28;20062;-63
2021/09/28 05:18:14;;;;;;;0.30;0.30;;;;;;;12.81;95.90;100813.91;5103720;28;20040;-63
2021/09/28 05:20:40;;;;;;;0.30;0.30;;;;;;;12.73;96.02;100800.97;5103267;28;20028;-63
2021/09/28 05:23:05;;;;;;;0.20;0.20;;;;;;;12.82;95.81;100813.00;5103301;28;20027;-62
2021/09/28 05:25:31;;;;;;;0.30;0.30;;;;;;;12.80;96.10;100806.94;5103131;28;20253;-62
2021/09/28 05:27:56;;;;;;;0.20;0.20;;;;;;;12.83;95.90;100820.81;5103368;28;20028;-62
2021/09/28 05:30:22;;;;;;;0.20;0.20;;;;;;;12.87;95.62;100819.91;5085211;28;20071;-63
2021/09/28 05:32:48;;;;;;;0.20;0.20;;;;;;;12.85;95.90;100823.41;5103202;28;20027;-63
2021/09/28 05:35:13;;;;;;;0.20;0.20;;;;;;;12.84;95.84;100817.31;5103279;28;20256;-63
2021/09/28 05:37:39;;;;;;;0.20;0.20;;;;;;;12.85;95.83;100826.88;5103450;28;20031;-66
2021/09/28 05:40:05;;;;;;;0.20;0.20;;;;;;;12.84;96.10;100827.75;5103190;28;20272;-65
2021/09/28 05:42:31;;;;;;;0.20;0.20;;;;;;;12.85;96.08;100834.69;5103053;28;20077;-64
2021/09/28 05:44:57;;;;;;;0.30;0.30;;;;;;;12.88;95.79;100837.28;5102960;28;20024;-64
2021/09/28 05:47:22;;;;;;;0.20;0.20;;;;;;;12.87;95.99;100827.72;5103705;28;20034;-64
2021/09/28 05:49:48;;;;;;;0.20;0.20;;;;;;;12.87;95.92;100826.88;5107318;28;20229;-64
2021/09/28 05:52:15;;;;;;;0.20;0.20;;;;;;;12.87;96.04;100835.56;5107356;28;20016;-64
2021/09/28 05:54:47;;;;;;;0.20;0.20;;;;;;;12.89;96.12;100840.75;5106949;28;20043;-64
2021/09/28 05:57:15;;;;;;;0.30;0.30;;;;;;;12.82;96.07;100839.94;5107251;28;20493;-64
2021/09/28 05:59:41;;;;;;;0.20;0.20;;;;;;;12.88;95.75;100841.59;5107003;28;20077;-64
2021/09/28 06:02:06;;;;;;;0.30;0.30;;;;;;;12.81;96.00;100851.22;5107024;28;20020;-64
2021/09/28 06:04:33;;;;;;;0.30;0.30;;;;;;;12.83;96.06;100852.09;5107071;28;20024;-64
2021/09/28 06:07:00;;;;;;;3.33;3.03;;;;;;;12.79;96.06;100850.41;5106997;28;20521;-64
2021/09/28 06:09:26;;;;;;;0.20;0.20;;;;;;;12.78;96.29;100864.28;5106627;28;20028;-64
2021/09/28 06:11:52;;;;;;;0.20;0.20;;;;;;;12.79;96.06;100871.25;5106551;28;20092;-65
2021/09/28 06:14:17;;;;;;;0.20;0.20;;;;;;;12.82;95.98;100875.56;5106584;28;20027;-64
2021/09/28 06:16:43;;;;;;;0.22;0.22;;;;;;;12.87;95.91;100877.25;5106952;28;20435;-64
2021/09/28 06:19:08;;;;;;;0.30;0.30;;;;;;;12.91;95.98;100877.22;5106779;28;20028;-63
2021/09/28 06:21:33;;;;;;;0.30;0.30;;;;;;;12.92;95.91;100884.13;5106850;28;20035;-65
2021/09/28 06:23:59;;;;;;;0.85;0.85;;;;;;;12.93;96.18;100881.50;5106777;28;20047;-65
2021/09/28 06:26:24;;;;;;;0.20;0.20;;;;;;;12.96;95.98;100880.59;5106612;28;20027;-65
2021/09/28 06:28:49;;;;;;;0.20;0.20;;;;;;;12.91;96.36;100887.63;5106532;28;20042;-63
2021/09/28 06:31:15;;;;;;;0.20;0.20;;;;;;;12.93;95.90;100888.47;5106587;28;20024;-63
2021/09/28 06:33:40;;;;;;;0.20;0.20;;;;;;;12.96;95.91;100897.13;5106545;28;20072;-64
2021/09/28 06:36:06;;;;;;;0.20;0.20;;;;;;;12.96;95.91;100909.28;5106353;28;20024;-63
2021/09/28 06:38:31;;;;;;;0.20;0.20;;;;;;;12.97;95.97;100911.03;5106296;28;20020;-63
2021/09/28 06:40:58;;;;;;;0.20;0.20;;;;;;;12.96;96.47;100893.63;5105996;28;20027;-65
2021/09/28 06:43:24;;;;;;;0.20;0.20;;;;;;;13.04;96.16;100907.47;5106290;28;20045;-63
2021/09/28 06:45:50;;;;;;;0.20;0.20;;;;;;;13.07;95.98;100917.84;5106174;28;20024;-63
2021/09/28 06:48:16;;;;;;;0.20;0.20;;;;;;;13.09;96.29;100920.44;5106257;28;20494;-64
2021/09/28 06:50:42;;;;;;;0.28;0.28;;;;;;;13.10;96.29;100922.19;5106089;28;20084;-64
2021/09/28 06:53:07;;;;;;;0.20;0.20;;;;;;;13.14;96.17;100924.75;5106238;28;20035;-64
2021/09/28 06:55:35;;;;;;;0.20;0.20;;;;;;;13.18;96.10;100935.13;5106072;28;20028;-64
2021/09/28 06:58:01;;;;;;;0.30;0.30;;;;;;;13.14;96.24;100929.09;5105891;28;20324;-64
2021/09/28 07:00:26;;;;;;;0.20;0.20;;;;;;;13.17;95.80;100943.81;5105386;28;20088;-64
2021/09/28 07:02:51;;;;;;;0.30;0.30;;;;;;;13.18;95.97;100935.13;5106078;28;20062;-64
2021/09/28 07:05:18;;;;;;;0.25;0.25;;;;;;;13.19;95.90;100934.25;5105701;28;20109;-65
2021/09/28 07:07:43;;;;;;;0.30;0.30;;;;;;;13.21;95.97;100938.56;5105976;28;20024;-64
2021/09/28 07:10:09;;;;;;;0.20;0.20;;;;;;;13.23;96.03;100944.63;5105485;28;20016;-65
2021/09/28 07:12:35;;;;;;;0.30;0.30;;;;;;;13.23;96.25;100938.53;5105888;28;20020;-65
2021/09/28 07:15:01;;;;;;;0.20;0.20;;;;;;;13.23;96.01;100948.97;5105892;28;20105;-65
2021/09/28 07:17:26;;;;;;;0.20;0.20;;;;;;;13.24;95.97;100948.09;5105644;28;20033;-65
2021/09/28 07:19:52;;;;;;;1.33;1.27;;;;;;;13.22;95.82;100950.72;5105657;28;20024;-65
2021/09/28 07:22:17;;;;;;;0.20;0.20;;;;;;;13.17;95.87;100951.63;5105727;28;20077;-65
2021/09/28 07:24:43;;;;;;;0.20;0.20;;;;;;;13.22;95.38;100961.16;5105150;28;20480;-64
2021/09/28 07:27:08;;;;;;;0.20;0.20;;;;;;;13.20;95.58;100964.63;5105337;28;20373;-64
2021/09/28 07:29:34;;;;;;;0.20;0.20;;;;;;;13.23;95.68;100967.22;5105487;28;20091;-64
2021/09/28 07:31:59;;;;;;;0.20;0.20;;;;;;;13.24;95.52;100968.97;5105502;28;20054;-64
2021/09/28 07:34:25;;;;;;;0.20;0.20;;;;;;;13.26;95.78;100964.56;5105351;28;20032;-64
2021/09/28 07:36:50;;;;;;;0.20;0.20;;;;;;;13.23;95.91;100969.81;5105180;28;20069;-63
2021/09/28 07:39:15;;;;;;;0.30;0.30;;;;;;;13.24;95.80;100980.22;5105098;28;20103;-64
2021/09/28 07:41:41;;;;;;;0.20;0.20;;;;;;;13.24;95.75;100976.78;5105391;28;20020;-63
2021/09/28 07:44:07;;;;;;;0.20;0.20;;;;;;;13.20;95.63;100967.25;5105386;28;20046;-63
2021/09/28 07:46:32;;;;;;;1.48;1.48;;;;;;;13.23;95.77;100969.81;5105024;28;20087;-62
2021/09/28 07:48:58;;;;;;;0.20;0.20;;;;;;;13.21;95.84;100976.81;5105186;28;20091;-64
2021/09/28 07:51:23;;;;;;;0.60;0.60;;;;;;;13.19;95.90;100981.16;5105028;28;20043;-63
2021/09/28 07:53:49;;;;;;;0.20;0.20;;;;;;;13.19;95.65;100976.84;5105012;28;20032;-64
2021/09/28 07:56:18;;;;;;;0.20;0.20;;;;;;;13.20;95.64;100993.31;5104759;28;20019;-65
2021/09/28 07:58:43;;;;;;;0.20;0.20;;;;;;;13.25;95.87;100991.53;5104971;28;20028;-65
2021/09/28 08:01:08;;;;;;;0.30;0.30;;;;;;;13.31;95.73;100993.19;5104935;28;20031;-65
2021/09/28 08:03:34;;;;;;;0.20;0.20;;;;;;;13.38;95.79;101000.97;5104740;28;20138;-65
2021/09/28 08:05:59;;;;;;;0.20;0.20;;;;;;;13.46;95.80;101007.84;5104496;28;20035;-66
2021/09/28 08:08:24;;;;;;;0.20;0.20;;;;;;;13.48;95.66;101009.53;5105052;28;20016;-64
2021/09/28 08:10:50;;;;;;;0.20;0.20;;;;;;;13.55;95.84;101006.88;5103682;28;20024;-64
2021/09/28 08:13:16;;;;;;;0.20;0.20;;;;;;;13.59;95.77;101004.25;5104935;28;20467;-64
2021/09/28 08:15:41;;;;;;;0.20;0.20;;;;;;;13.61;95.53;101012.06;5104387;28;20021;-64
2021/09/28 08:18:07;;;;;;;0.20;0.20;;;;;;;13.63;95.46;101026.81;5086237;28;20320;-63
2021/09/28 08:20:32;;;;;;;0.20;0.20;;;;;;;13.67;95.29;101024.16;5104368;28;20028;-64
2021/09/28 08:22:59;;;;;;;0.30;0.30;;;;;;;13.61;95.63;101022.50;5104341;28;20020;-68
2021/09/28 08:25:34;;;;;;;0.20;0.20;;;;;;;13.70;95.80;101027.63;5103897;28;20077;-64
2021/09/28 08:30:44;;;;;;;0.20;0.20;;;;;;;13.78;95.65;101018.81;5104354;28;20031;-64
2021/09/28 08:33:09;;;;;;;0.20;0.20;;;;;;;13.90;95.94;101034.31;5104163;28;20036;-65
2021/09/28 08:35:35;;;;;;;0.30;0.30;;;;;;;13.96;95.97;101036.84;5103861;28;20527;-66
2021/09/28 08:38:00;;;;;;;0.20;0.20;;;;;;;14.05;95.64;101042.84;5103854;28;20043;-66
2021/09/28 08:40:26;;;;;;;0.20;0.20;;;;;;;14.11;95.85;101041.03;5103723;28;20392;-67
2021/09/28 08:42:55;;;;;;;0.20;0.20;;;;;;;14.20;96.11;101039.19;5103743;28;20032;-69
2021/09/28 08:45:20;;;;;;;0.20;0.20;;;;;;;14.42;96.06;101050.19;5103962;28;20323;-68
2021/09/28 08:47:45;;;;;;;0.30;0.30;;;;;;;14.48;95.66;101049.25;5103811;28;20012;-70
2021/09/28 08:50:17;;;;;;;0.20;0.20;;;;;;;14.43;95.54;101035.38;5103718;28;20418;-70
2021/09/28 08:52:44;;;;;;;;;;;;;;;14.65;95.07;101048.13;5104103;28;20084;-70
2021/09/28 08:55:10;;;;;;;0.20;0.20;;;;;;;14.73;95.18;101052.34;5103602;28;19999;-71
2021/09/28 08:57:36;;;;;;;0.30;0.30;;;;;;;14.76;95.46;101056.66;5103807;28;20361;-71
2021/09/28 09:00:17;;;;;;;0.20;0.20;;;;;;;14.84;95.35;101065.28;5085325;28;20023;-72
2021/09/28 09:02:45;;;;;;;0.20;0.20;;;;;;;14.87;95.20;101060.00;5103709;28;20020;-70
2021/09/28 09:05:14;;;;;;;0.30;0.30;;;;;;;14.92;95.31;101072.16;5103493;28;20020;-67
2021/09/28 09:07:44;;;;;;;0.20;0.20;;;;;;;15.01;95.34;101063.28;5103735;28;20036;-67
2021/09/28 09:10:10;;;;;;;0.20;0.20;;;;;;;15.20;95.03;101069.06;5103829;28;20023;-67
2021/09/28 09:12:40;;;;;;;0.20;0.20;;;;;;;15.23;95.24;101067.28;5103693;28;20041;-67
2021/09/28 09:15:15;;;;;;;0.20;0.20;;;;;;;15.38;95.23;101075.75;5103478;28;20028;-68
2021/09/28 09:17:40;;;;;;;0.20;0.20;;;;;;;15.53;95.15;101073.75;5103670;28;20122;-68
2021/09/28 09:20:43;;;;;;;0.20;0.20;;;;;;;15.70;95.27;101083.88;5103411;28;20441;-69
2021/09/28 09:23:17;;;;;;;;;;;;;;;15.81;94.86;101081.94;5102958;28;20040;-68
2021/09/28 09:25:46;;;;;;;0.20;0.20;;;;;;;15.90;95.29;101074.75;5103311;28;20220;-68
2021/09/28 09:28:31;;;;;;;0.20;0.20;;;;;;;16.24;95.17;101081.97;5103584;28;20028;-68
2021/09/28 09:31:11;;;;;;;0.20;0.20;;;;;;;16.45;95.22;101085.84;5103511;28;20424;-68
2021/09/28 09:33:40;;;;;;;0.25;0.25;;;;;;;17.14;95.80;101093.94;5103320;28;20020;-67
2021/09/28 09:36:06;;;;;;;0.20;0.20;;;;;;;18.11;94.46;101089.59;5103203;28;20115;-68
2021/09/28 09:38:40;;;;;;;0.20;0.20;;;;;;;19.32;92.84;101092.88;5103435;28;20084;-67
2021/09/28 09:41:06;;;;;;;0.47;0.47;;;;;;;20.65;90.32;101092.47;5103329;28;20035;-68
2021/09/28 09:43:33;;;;;;;0.20;0.20;;;;;;;21.92;88.11;101082.78;5103339;28;20178;-66
2021/09/28 09:46:19;;;;;;;0.10;0.10;;;;;;;23.13;84.55;101086.75;5103196;28;20119;-68
2021/09/28 09:48:47;;;;;;;0.10;0.10;;;;;;;23.87;81.03;101096.25;5103187;28;20024;-69
2021/09/28 09:51:20;;;;;;;0.40;0.40;;;;;;;24.47;75.41;101105.38;5103371;28;20024;-69
2021/09/28 09:53:51;;;;;;;0.10;0.10;;;;;;;25.32;76.71;101097.94;5103265;28;20020;-70
2021/09/28 09:56:19;;;;;;;0.10;0.10;;;;;;;25.98;75.37;101098.38;5102750;28;20583;-70
2021/09/28 09:58:45;;;;;;;0.10;0.10;;;;;;;26.51;71.35;101093.31;5102941;28;20348;-71
2021/09/28 10:01:10;;;;;;;0.10;0.10;;;;;;;26.93;69.68;101099.44;5102855;28;20031;-70
2021/09/28 10:03:38;;;;;;;0.00;0.00;;;;;;;27.49;70.94;101096.63;5103256;28;20051;-71
2021/09/28 10:06:07;;;;;;;0.10;0.10;;;;;;;27.93;68.58;101098.00;5103062;28;20020;-71
2021/09/28 10:08:34;;;;;;;0.10;0.10;;;;;;;28.13;67.14;101098.34;5103013;28;20100;-69
2021/09/28 10:11:00;;;;;;;0.10;0.10;;;;;;;28.64;68.00;101109.00;5102720;28;20028;-70
2021/09/28 10:13:47;;;;;;;0.10;0.10;;;;;;;28.29;62.54;101110.63;5103239;28;20016;-70
2021/09/28 10:16:35;;;;;;;4.22;1.45;;;;;;;28.19;48.81;101119.28;5102842;28;20075;-69
2021/09/28 10:19:03;;;;;;;0.00;0.00;;;;;;;28.81;65.46;101113.94;5102952;28;20483;-70
2021/09/28 10:21:34;;;;;;;0.00;0.00;;;;;;;29.24;67.02;101121.47;5102997;28;20024;-70
2021/09/28 10:24:18;;;;;;;0.10;0.10;;;;;;;29.33;55.18;101120.75;5102884;28;20062;-70
2021/09/28 10:26:44;;;;;;;0.10;0.10;;;;;;;29.84;64.36;101112.44;5102738;28;20441;-69
2021/09/28 10:29:43;;;;;;;0.10;0.10;;;;;;;29.62;63.36;101108.81;5102620;28;20024;-63
2021/09/28 10:32:36;;;;;;;0.17;0.17;;;;;;;29.46;65.08;101118.00;5102316;28;20053;-64
2021/09/28 10:35:12;;;;;;;0.10;0.10;;;;;;;29.32;64.16;101116.41;5104614;28;20031;-67
2021/09/28 10:37:53;;;;;;;0.10;0.10;;;;;;;28.91;64.27;101123.91;5106327;28;20030;-78
2021/09/28 10:40:21;;;;;;;0.10;0.10;;;;;;;28.52;63.19;101126.78;5106044;28;20051;-77
2021/09/28 10:42:59;;;;;;;0.32;0.32;;;;;;;28.43;62.62;101123.84;5106343;28;20024;-75
2021/09/28 10:45:33;;;;;;;0.10;0.10;;;;;;;28.47;62.19;101128.94;5106255;28;20028;-75
2021/09/28 10:47:59;;;;;;;0.10;0.10;;;;;;;28.68;65.11;101127.34;5105817;28;20024;-74
2021/09/28 10:50:28;;;;;;;0.10;0.10;;;;;;;28.58;54.96;101118.31;5106011;28;20077;-75
2021/09/28 10:52:55;;;;;;;0.77;0.77;;;;;;;28.20;61.36;101131.66;5105167;28;20024;-75
2021/09/28 10:55:23;;;;;;;0.10;0.10;;;;;;;28.59;63.69;101136.06;5105566;28;20035;-75
2021/09/28 10:57:54;;;;;;;0.05;0.05;;;;;;;28.92;60.71;101137.16;5105856;28;20020;-75
2021/09/28 11:00:21;;;;;;;0.10;0.10;;;;;;;29.44;60.54;101136.84;5105836;28;20080;-75
2021/09/28 11:02:51;;;;;;;0.10;0.10;;;;;;;29.84;59.67;101132.03;5105861;28;20036;-75
2021/09/28 11:05:31;;;;;;;0.10;0.10;;;;;;;30.15;60.46;101136.75;5105826;28;20039;-74
2021/09/28 11:07:57;;;;;;;0.00;0.00;;;;;;;30.06;58.79;101141.03;5106013;28;20028;-74
2021/09/28 11:10:23;;;;;;;0.10;0.10;;;;;;;30.39;60.52;101136.59;5105661;28;20020;-74
2021/09/28 11:12:48;;;;;;;0.10;0.10;;;;;;;30.32;58.47;101148.81;5087424;28;20107;-75
2021/09/28 11:15:24;;;;;;;0.10;0.10;;;;;;;30.61;57.13;101150.91;5105838;28;20050;-74
2021/09/28 11:17:50;;;;;;;2.63;0.80;;;;;;;30.26;55.23;101146.59;5105751;28;20409;-75
2021/09/28 11:20:29;;;;;;;0.10;0.10;;;;;;;28.28;56.43;101151.59;5087188;28;20031;-73
2021/09/28 11:23:00;;;;;;;0.10;0.10;;;;;;;26.50;54.21;101160.84;5105658;28;20111;-74
2021/09/28 11:25:30;;;;;;;0.10;0.10;;;;;;;24.86;59.11;101166.06;5105298;28;20067;-74
2021/09/28 11:28:16;;;;;;;0.10;0.10;;;;;;;23.33;56.38;101168.78;5105443;28;20472;-73
2021/09/28 11:31:03;;;;;;;0.10;0.10;;;;;;;22.18;62.87;101167.97;5105474;28;20024;-73